Pagrindinis puslapis
METAR-TAF:

METAR-TAF

Oro uostai :

Roskildė, Danija

platuma: 55-35N, ilguma: 012-08E, Aukštis: 44 m

Dabartinis oras

Ataskaita buvo paskelbta 25 minutes, ne 16:20 UTC
Vėjas 15 kt iš Rytų/Pietryčių
Temperatūra 15°C
Drėgmė 63%
Slėgis 1007 hPa
Matomumas 10 km arba daugiau

METAR: EKRK 231620Z AUTO 12015KT 9999 NCD 15/08 Q1007

Laikas: 18:45 (16:45 UTC)

Prognozė

Ataskaita buvo paskelbta 2 valandos ir 20 minutes, ne 14:25 UTC
Prognozė galioja nuo 23 metu 15 UTC su 23 metu 24 UTC
Vėjas 17 kt iš Rytų/Pietryčių
Matomumas 10 km arba daugiau
nėra debesų žemiau 1500 m ir nėra kamuolinių lietaus debesų
Laikinai
nuo 23 metu 20 UTC su 23 metu 24 UTC
Vėjas 18 kt iš Rytų/Pietryčių su gūsio iki 28 kt

TAF: EKRK 231425Z 2315/2324 12017KT CAVOK TEMPO 2320/2324 12018G28KT

Orai ataskaitas ir orų prognozės (METAR, TAF).

turimą stotys yra geltonos ir raudonos taškus žemėlapyje.

Perkelti pele per norėdami pamatyti stoties vardą.

Tada spustelėkite, norėdami matyti oro stebėjimo ir prognozės.

Norėdami pakeisti žemėlapį: spustelėkite ant žalios mygtukų su juodo kryžiaus žemyn,; žalią mygtuką su brūkšneliu, jei norite nutolinti; arba žalių rodyklių gretimoms žemėlapius.


METAR-TAF: